<?xml version="1.0" encoding="UTF-8" standalone="no" ?>
<gpx xmlns="http://www.topografix.com/GPX/1/1" xmlns:xsi="http://www.w3.org/2001/XMLSchema-instance" xsi:schemaLocation="http://www.topografix.com/GPX/1/1 http://www.topografix.com/GPX/1/1/gpx.xsd" version="1.1" creator="VisuGPX - https://www.visugpx.com">
  <metadata>
    <name>Balade equestre Engin - plateau du Sornin et de la MoliÃ?Â¨re</name>
    <desc><![CDATA[Balade Ã©questre Ã  la journÃ©e dans le Vercors. DÃ©part d'Engin direction le plateau du Sornin et le plateau de la MoliÃ¨re.]]></desc>
  </metadata>
  <trk>
    <name><![CDATA[Engin - Plateau du Sornin/Molière]]></name>
    <trkseg>
      <trkpt lat="45.18038" lon="5.61674">
        <ele>929</ele>
        <time>2018-07-04T21:58:55+02:00</time>
      </trkpt>
      <trkpt lat="45.18057" lon="5.61628">
        <ele>946</ele>
        <time>2018-07-04T21:59:00+02:00</time>
      </trkpt>
      <trkpt lat="45.18225" lon="5.61714">
        <ele>932</ele>
        <time>2018-07-04T21:59:05+02:00</time>
      </trkpt>
      <trkpt lat="45.18241" lon="5.61735">
        <ele>926</ele>
        <time>2018-07-04T21:59:10+02:00</time>
      </trkpt>
      <trkpt lat="45.18259" lon="5.61763">
        <ele>919</ele>
        <time>2018-07-04T21:59:15+02:00</time>
      </trkpt>
      <trkpt lat="45.18281" lon="5.61785">
        <ele>918</ele>
        <time>2018-07-04T21:59:20+02:00</time>
      </trkpt>
      <trkpt lat="45.18284" lon="5.61801">
        <ele>914</ele>
        <time>2018-07-04T21:59:25+02:00</time>
      </trkpt>
      <trkpt lat="45.18351" lon="5.61833">
        <ele>916</ele>
        <time>2018-07-04T21:59:30+02:00</time>
      </trkpt>
      <trkpt lat="45.18411" lon="5.61874">
        <ele>911</ele>
        <time>2018-07-04T21:59:35+02:00</time>
      </trkpt>
      <trkpt lat="45.18448" lon="5.61882">
        <ele>906</ele>
        <time>2018-07-04T21:59:40+02:00</time>
      </trkpt>
      <trkpt lat="45.18473" lon="5.61872">
        <ele>905</ele>
        <time>2018-07-04T21:59:45+02:00</time>
      </trkpt>
      <trkpt lat="45.18493" lon="5.61848">
        <ele>910</ele>
        <time>2018-07-04T21:59:50+02:00</time>
      </trkpt>
      <trkpt lat="45.18515" lon="5.61793">
        <ele>922</ele>
        <time>2018-07-04T21:59:55+02:00</time>
      </trkpt>
      <trkpt lat="45.18542" lon="5.61742">
        <ele>925</ele>
        <time>2018-07-04T22:00:00+02:00</time>
      </trkpt>
      <trkpt lat="45.18567" lon="5.61712">
        <ele>921</ele>
        <time>2018-07-04T22:00:05+02:00</time>
      </trkpt>
      <trkpt lat="45.18603" lon="5.61674">
        <ele>917</ele>
        <time>2018-07-04T22:00:10+02:00</time>
      </trkpt>
      <trkpt lat="45.18644" lon="5.61637">
        <ele>914</ele>
        <time>2018-07-04T22:00:15+02:00</time>
      </trkpt>
      <trkpt lat="45.18681" lon="5.61576">
        <ele>917</ele>
        <time>2018-07-04T22:00:20+02:00</time>
      </trkpt>
      <trkpt lat="45.18689" lon="5.61518">
        <ele>926</ele>
        <time>2018-07-04T22:00:25+02:00</time>
      </trkpt>
      <trkpt lat="45.18698" lon="5.6149">
        <ele>931</ele>
        <time>2018-07-04T22:00:30+02:00</time>
      </trkpt>
      <trkpt lat="45.18714" lon="5.61481">
        <ele>932</ele>
        <time>2018-07-04T22:00:35+02:00</time>
      </trkpt>
      <trkpt lat="45.1873" lon="5.61498">
        <ele>928</ele>
        <time>2018-07-04T22:00:40+02:00</time>
      </trkpt>
      <trkpt lat="45.18746" lon="5.61529">
        <ele>924</ele>
        <time>2018-07-04T22:00:45+02:00</time>
      </trkpt>
      <trkpt lat="45.18767" lon="5.61572">
        <ele>923</ele>
        <time>2018-07-04T22:00:50+02:00</time>
      </trkpt>
      <trkpt lat="45.1878" lon="5.61616">
        <ele>925</ele>
        <time>2018-07-04T22:00:55+02:00</time>
      </trkpt>
      <trkpt lat="45.18787" lon="5.61676">
        <ele>924</ele>
        <time>2018-07-04T22:01:00+02:00</time>
      </trkpt>
      <trkpt lat="45.18798" lon="5.61715">
        <ele>925</ele>
        <time>2018-07-04T22:01:05+02:00</time>
      </trkpt>
      <trkpt lat="45.18812" lon="5.61794">
        <ele>924</ele>
        <time>2018-07-04T22:01:10+02:00</time>
      </trkpt>
      <trkpt lat="45.18827" lon="5.61879">
        <ele>920</ele>
        <time>2018-07-04T22:01:15+02:00</time>
      </trkpt>
      <trkpt lat="45.18842" lon="5.61921">
        <ele>918</ele>
        <time>2018-07-04T22:01:20+02:00</time>
      </trkpt>
      <trkpt lat="45.18867" lon="5.61954">
        <ele>914</ele>
        <time>2018-07-04T22:01:25+02:00</time>
      </trkpt>
      <trkpt lat="45.18905" lon="5.61976">
        <ele>913</ele>
        <time>2018-07-04T22:01:30+02:00</time>
      </trkpt>
      <trkpt lat="45.18959" lon="5.61977">
        <ele>915</ele>
        <time>2018-07-04T22:01:35+02:00</time>
      </trkpt>
      <trkpt lat="45.18997" lon="5.61971">
        <ele>917</ele>
        <time>2018-07-04T22:01:40+02:00</time>
      </trkpt>
      <trkpt lat="45.19053" lon="5.61961">
        <ele>921</ele>
        <time>2018-07-04T22:01:45+02:00</time>
      </trkpt>
      <trkpt lat="45.19106" lon="5.61954">
        <ele>923</ele>
        <time>2018-07-04T22:01:50+02:00</time>
      </trkpt>
      <trkpt lat="45.1914" lon="5.6195">
        <ele>925</ele>
        <time>2018-07-04T22:01:55+02:00</time>
      </trkpt>
      <trkpt lat="45.19203" lon="5.61952">
        <ele>928</ele>
        <time>2018-07-04T22:02:00+02:00</time>
      </trkpt>
      <trkpt lat="45.19259" lon="5.61955">
        <ele>932</ele>
        <time>2018-07-04T22:02:05+02:00</time>
      </trkpt>
      <trkpt lat="45.19282" lon="5.61963">
        <ele>932</ele>
        <time>2018-07-04T22:02:10+02:00</time>
      </trkpt>
      <trkpt lat="45.19307" lon="5.61979">
        <ele>932</ele>
        <time>2018-07-04T22:02:15+02:00</time>
      </trkpt>
      <trkpt lat="45.19327" lon="5.61912">
        <ele>947</ele>
        <time>2018-07-04T22:02:20+02:00</time>
      </trkpt>
      <trkpt lat="45.1932" lon="5.61873">
        <ele>954</ele>
        <time>2018-07-04T22:02:25+02:00</time>
      </trkpt>
      <trkpt lat="45.19321" lon="5.61812">
        <ele>967</ele>
        <time>2018-07-04T22:02:30+02:00</time>
      </trkpt>
      <trkpt lat="45.19341" lon="5.61812">
        <ele>968</ele>
        <time>2018-07-04T22:02:35+02:00</time>
      </trkpt>
      <trkpt lat="45.19341" lon="5.61795">
        <ele>972</ele>
        <time>2018-07-04T22:02:40+02:00</time>
      </trkpt>
      <trkpt lat="45.19339" lon="5.61779">
        <ele>974</ele>
        <time>2018-07-04T22:02:45+02:00</time>
      </trkpt>
      <trkpt lat="45.19355" lon="5.61775">
        <ele>978</ele>
        <time>2018-07-04T22:02:50+02:00</time>
      </trkpt>
      <trkpt lat="45.19347" lon="5.61745">
        <ele>982</ele>
        <time>2018-07-04T22:02:55+02:00</time>
      </trkpt>
      <trkpt lat="45.19398" lon="5.61776">
        <ele>985</ele>
        <time>2018-07-04T22:03:00+02:00</time>
      </trkpt>
      <trkpt lat="45.19372" lon="5.61763">
        <ele>983</ele>
        <time>2018-07-04T22:03:05+02:00</time>
      </trkpt>
      <trkpt lat="45.19421" lon="5.61729">
        <ele>998</ele>
        <time>2018-07-04T22:03:10+02:00</time>
      </trkpt>
      <trkpt lat="45.19425" lon="5.61721">
        <ele>1001</ele>
        <time>2018-07-04T22:03:15+02:00</time>
      </trkpt>
      <trkpt lat="45.19443" lon="5.61712">
        <ele>1008</ele>
        <time>2018-07-04T22:03:20+02:00</time>
      </trkpt>
      <trkpt lat="45.19484" lon="5.61705">
        <ele>1021</ele>
        <time>2018-07-04T22:03:25+02:00</time>
      </trkpt>
      <trkpt lat="45.19532" lon="5.61713">
        <ele>1033</ele>
        <time>2018-07-04T22:03:30+02:00</time>
      </trkpt>
      <trkpt lat="45.19582" lon="5.61694">
        <ele>1050</ele>
        <time>2018-07-04T22:03:35+02:00</time>
      </trkpt>
      <trkpt lat="45.19591" lon="5.6171">
        <ele>1050</ele>
        <time>2018-07-04T22:03:40+02:00</time>
      </trkpt>
      <trkpt lat="45.19603" lon="5.61712">
        <ele>1053</ele>
        <time>2018-07-04T22:03:45+02:00</time>
      </trkpt>
      <trkpt lat="45.19617" lon="5.61726">
        <ele>1055</ele>
        <time>2018-07-04T22:03:50+02:00</time>
      </trkpt>
      <trkpt lat="45.19746" lon="5.61727">
        <ele>1092</ele>
        <time>2018-07-04T22:03:55+02:00</time>
      </trkpt>
      <trkpt lat="45.19779" lon="5.61712">
        <ele>1102</ele>
        <time>2018-07-04T22:04:00+02:00</time>
      </trkpt>
      <trkpt lat="45.19789" lon="5.61708">
        <ele>1105</ele>
        <time>2018-07-04T22:04:05+02:00</time>
      </trkpt>
      <trkpt lat="45.19899" lon="5.61736">
        <ele>1127</ele>
        <time>2018-07-04T22:04:10+02:00</time>
      </trkpt>
      <trkpt lat="45.19862" lon="5.61714">
        <ele>1121</ele>
        <time>2018-07-04T22:04:15+02:00</time>
      </trkpt>
      <trkpt lat="45.19875" lon="5.61726">
        <ele>1123</ele>
        <time>2018-07-04T22:04:20+02:00</time>
      </trkpt>
      <trkpt lat="45.19906" lon="5.61736">
        <ele>1129</ele>
        <time>2018-07-04T22:04:25+02:00</time>
      </trkpt>
      <trkpt lat="45.19959" lon="5.61738">
        <ele>1144</ele>
        <time>2018-07-04T22:04:30+02:00</time>
      </trkpt>
      <trkpt lat="45.1997" lon="5.61741">
        <ele>1147</ele>
        <time>2018-07-04T22:04:35+02:00</time>
      </trkpt>
      <trkpt lat="45.19985" lon="5.61763">
        <ele>1145</ele>
        <time>2018-07-04T22:04:40+02:00</time>
      </trkpt>
      <trkpt lat="45.20045" lon="5.61779">
        <ele>1158</ele>
        <time>2018-07-04T22:04:45+02:00</time>
      </trkpt>
      <trkpt lat="45.20053" lon="5.61771">
        <ele>1162</ele>
        <time>2018-07-04T22:04:50+02:00</time>
      </trkpt>
      <trkpt lat="45.20097" lon="5.61757">
        <ele>1179</ele>
        <time>2018-07-04T22:04:55+02:00</time>
      </trkpt>
      <trkpt lat="45.20119" lon="5.61724">
        <ele>1190</ele>
        <time>2018-07-04T22:05:00+02:00</time>
      </trkpt>
      <trkpt lat="45.20242" lon="5.61721">
        <ele>1225</ele>
        <time>2018-07-04T22:05:05+02:00</time>
      </trkpt>
      <trkpt lat="45.20208" lon="5.61712">
        <ele>1216</ele>
        <time>2018-07-04T22:05:10+02:00</time>
      </trkpt>
      <trkpt lat="45.20264" lon="5.61723">
        <ele>1232</ele>
        <time>2018-07-04T22:05:15+02:00</time>
      </trkpt>
      <trkpt lat="45.2026" lon="5.61725">
        <ele>1230</ele>
        <time>2018-07-04T22:05:20+02:00</time>
      </trkpt>
      <trkpt lat="45.20262" lon="5.6175">
        <ele>1228</ele>
        <time>2018-07-04T22:05:25+02:00</time>
      </trkpt>
      <trkpt lat="45.20319" lon="5.61734">
        <ele>1250</ele>
        <time>2018-07-04T22:05:30+02:00</time>
      </trkpt>
      <trkpt lat="45.20299" lon="5.61734">
        <ele>1243</ele>
        <time>2018-07-04T22:05:35+02:00</time>
      </trkpt>
      <trkpt lat="45.20331" lon="5.61723">
        <ele>1255</ele>
        <time>2018-07-04T22:05:40+02:00</time>
      </trkpt>
      <trkpt lat="45.20358" lon="5.6173">
        <ele>1264</ele>
        <time>2018-07-04T22:05:45+02:00</time>
      </trkpt>
      <trkpt lat="45.20423" lon="5.61739">
        <ele>1288</ele>
        <time>2018-07-04T22:05:50+02:00</time>
      </trkpt>
      <trkpt lat="45.20525" lon="5.61746">
        <ele>1316</ele>
        <time>2018-07-04T22:05:55+02:00</time>
      </trkpt>
      <trkpt lat="45.20636" lon="5.61753">
        <ele>1335</ele>
        <time>2018-07-04T22:06:00+02:00</time>
      </trkpt>
      <trkpt lat="45.20615" lon="5.61756">
        <ele>1331</ele>
        <time>2018-07-04T22:06:05+02:00</time>
      </trkpt>
      <trkpt lat="45.20655" lon="5.61741">
        <ele>1338</ele>
        <time>2018-07-04T22:06:10+02:00</time>
      </trkpt>
      <trkpt lat="45.2069" lon="5.61738">
        <ele>1344</ele>
        <time>2018-07-04T22:06:15+02:00</time>
      </trkpt>
      <trkpt lat="45.2073" lon="5.61739">
        <ele>1352</ele>
        <time>2018-07-04T22:06:20+02:00</time>
      </trkpt>
      <trkpt lat="45.20771" lon="5.61715">
        <ele>1362</ele>
        <time>2018-07-04T22:06:25+02:00</time>
      </trkpt>
      <trkpt lat="45.2081" lon="5.61766">
        <ele>1368</ele>
        <time>2018-07-04T22:06:30+02:00</time>
      </trkpt>
      <trkpt lat="45.20794" lon="5.61734">
        <ele>1367</ele>
        <time>2018-07-04T22:06:35+02:00</time>
      </trkpt>
      <trkpt lat="45.20805" lon="5.61759">
        <ele>1367</ele>
        <time>2018-07-04T22:06:40+02:00</time>
      </trkpt>
      <trkpt lat="45.20813" lon="5.61781">
        <ele>1367</ele>
        <time>2018-07-04T22:06:45+02:00</time>
      </trkpt>
      <trkpt lat="45.20851" lon="5.618">
        <ele>1374</ele>
        <time>2018-07-04T22:06:50+02:00</time>
      </trkpt>
      <trkpt lat="45.20865" lon="5.61843">
        <ele>1372</ele>
        <time>2018-07-04T22:06:55+02:00</time>
      </trkpt>
      <trkpt lat="45.20855" lon="5.61825">
        <ele>1372</ele>
        <time>2018-07-04T22:07:00+02:00</time>
      </trkpt>
      <trkpt lat="45.2093" lon="5.6192">
        <ele>1372</ele>
        <time>2018-07-04T22:07:05+02:00</time>
      </trkpt>
      <trkpt lat="45.20928" lon="5.61912">
        <ele>1373</ele>
        <time>2018-07-04T22:07:10+02:00</time>
      </trkpt>
      <trkpt lat="45.2111" lon="5.62073">
        <ele>1378</ele>
        <time>2018-07-04T22:07:15+02:00</time>
      </trkpt>
      <trkpt lat="45.21202" lon="5.62101">
        <ele>1393</ele>
        <time>2018-07-04T22:07:20+02:00</time>
      </trkpt>
      <trkpt lat="45.21195" lon="5.62097">
        <ele>1392</ele>
        <time>2018-07-04T22:07:25+02:00</time>
      </trkpt>
      <trkpt lat="45.212" lon="5.62139">
        <ele>1384</ele>
        <time>2018-07-04T22:07:30+02:00</time>
      </trkpt>
      <trkpt lat="45.21248" lon="5.62142">
        <ele>1394</ele>
        <time>2018-07-04T22:07:35+02:00</time>
      </trkpt>
      <trkpt lat="45.21287" lon="5.62161">
        <ele>1400</ele>
        <time>2018-07-04T22:07:40+02:00</time>
      </trkpt>
      <trkpt lat="45.21418" lon="5.62234">
        <ele>1404</ele>
        <time>2018-07-04T22:07:45+02:00</time>
      </trkpt>
      <trkpt lat="45.21468" lon="5.62212">
        <ele>1410</ele>
        <time>2018-07-04T22:07:50+02:00</time>
      </trkpt>
      <trkpt lat="45.21516" lon="5.62148">
        <ele>1418</ele>
        <time>2018-07-04T22:07:55+02:00</time>
      </trkpt>
      <trkpt lat="45.2153" lon="5.62122">
        <ele>1421</ele>
        <time>2018-07-04T22:08:00+02:00</time>
      </trkpt>
      <trkpt lat="45.21528" lon="5.62117">
        <ele>1421</ele>
        <time>2018-07-04T22:08:05+02:00</time>
      </trkpt>
      <trkpt lat="45.2159" lon="5.62229">
        <ele>1421</ele>
        <time>2018-07-04T22:08:10+02:00</time>
      </trkpt>
      <trkpt lat="45.21576" lon="5.62198">
        <ele>1421</ele>
        <time>2018-07-04T22:08:15+02:00</time>
      </trkpt>
      <trkpt lat="45.21648" lon="5.62268">
        <ele>1420</ele>
        <time>2018-07-04T22:08:20+02:00</time>
      </trkpt>
      <trkpt lat="45.21626" lon="5.62261">
        <ele>1420</ele>
        <time>2018-07-04T22:08:25+02:00</time>
      </trkpt>
      <trkpt lat="45.21667" lon="5.62284">
        <ele>1419</ele>
        <time>2018-07-04T22:08:30+02:00</time>
      </trkpt>
      <trkpt lat="45.2175" lon="5.62298">
        <ele>1422</ele>
        <time>2018-07-04T22:08:35+02:00</time>
      </trkpt>
      <trkpt lat="45.21831" lon="5.62324">
        <ele>1418</ele>
        <time>2018-07-04T22:08:40+02:00</time>
      </trkpt>
      <trkpt lat="45.2179" lon="5.62272">
        <ele>1423</ele>
        <time>2018-07-04T22:08:45+02:00</time>
      </trkpt>
      <trkpt lat="45.21776" lon="5.62213">
        <ele>1432</ele>
        <time>2018-07-04T22:08:50+02:00</time>
      </trkpt>
      <trkpt lat="45.21775" lon="5.62142">
        <ele>1443</ele>
        <time>2018-07-04T22:08:55+02:00</time>
      </trkpt>
      <trkpt lat="45.21773" lon="5.62023">
        <ele>1461</ele>
        <time>2018-07-04T22:09:00+02:00</time>
      </trkpt>
      <trkpt lat="45.21768" lon="5.62025">
        <ele>1461</ele>
        <time>2018-07-04T22:09:05+02:00</time>
      </trkpt>
      <trkpt lat="45.21764" lon="5.61985">
        <ele>1466</ele>
        <time>2018-07-04T22:09:10+02:00</time>
      </trkpt>
      <trkpt lat="45.2177" lon="5.61819">
        <ele>1488</ele>
        <time>2018-07-04T22:09:15+02:00</time>
      </trkpt>
      <trkpt lat="45.21764" lon="5.61878">
        <ele>1481</ele>
        <time>2018-07-04T22:09:20+02:00</time>
      </trkpt>
      <trkpt lat="45.21794" lon="5.61691">
        <ele>1505</ele>
        <time>2018-07-04T22:09:25+02:00</time>
      </trkpt>
      <trkpt lat="45.21788" lon="5.61699">
        <ele>1503</ele>
        <time>2018-07-04T22:09:30+02:00</time>
      </trkpt>
      <trkpt lat="45.21793" lon="5.61649">
        <ele>1509</ele>
        <time>2018-07-04T22:09:35+02:00</time>
      </trkpt>
      <trkpt lat="45.21852" lon="5.61517">
        <ele>1525</ele>
        <time>2018-07-04T22:09:40+02:00</time>
      </trkpt>
      <trkpt lat="45.21849" lon="5.61516">
        <ele>1525</ele>
        <time>2018-07-04T22:09:45+02:00</time>
      </trkpt>
      <trkpt lat="45.21852" lon="5.6139">
        <ele>1537</ele>
        <time>2018-07-04T22:09:50+02:00</time>
      </trkpt>
      <trkpt lat="45.21843" lon="5.61242">
        <ele>1552</ele>
        <time>2018-07-04T22:09:55+02:00</time>
      </trkpt>
      <trkpt lat="45.21833" lon="5.61175">
        <ele>1557</ele>
        <time>2018-07-04T22:10:00+02:00</time>
      </trkpt>
      <trkpt lat="45.21753" lon="5.61077">
        <ele>1562</ele>
        <time>2018-07-04T22:10:05+02:00</time>
      </trkpt>
      <trkpt lat="45.21707" lon="5.61025">
        <ele>1564</ele>
        <time>2018-07-04T22:10:10+02:00</time>
      </trkpt>
      <trkpt lat="45.21669" lon="5.61002">
        <ele>1567</ele>
        <time>2018-07-04T22:10:15+02:00</time>
      </trkpt>
      <trkpt lat="45.21669" lon="5.61005">
        <ele>1567</ele>
        <time>2018-07-04T22:10:20+02:00</time>
      </trkpt>
      <trkpt lat="45.21593" lon="5.60925">
        <ele>1577</ele>
        <time>2018-07-04T22:10:25+02:00</time>
      </trkpt>
      <trkpt lat="45.21613" lon="5.60974">
        <ele>1575</ele>
        <time>2018-07-04T22:10:30+02:00</time>
      </trkpt>
      <trkpt lat="45.21575" lon="5.6088">
        <ele>1575</ele>
        <time>2018-07-04T22:10:35+02:00</time>
      </trkpt>
      <trkpt lat="45.21576" lon="5.60886">
        <ele>1576</ele>
        <time>2018-07-04T22:10:40+02:00</time>
      </trkpt>
      <trkpt lat="45.21474" lon="5.60822">
        <ele>1576</ele>
        <time>2018-07-04T22:10:45+02:00</time>
      </trkpt>
      <trkpt lat="45.21494" lon="5.60846">
        <ele>1579</ele>
        <time>2018-07-04T22:10:50+02:00</time>
      </trkpt>
      <trkpt lat="45.21442" lon="5.60781">
        <ele>1572</ele>
        <time>2018-07-04T22:10:55+02:00</time>
      </trkpt>
      <trkpt lat="45.21404" lon="5.60712">
        <ele>1565</ele>
        <time>2018-07-04T22:11:00+02:00</time>
      </trkpt>
      <trkpt lat="45.2138" lon="5.60701">
        <ele>1563</ele>
        <time>2018-07-04T22:11:05+02:00</time>
      </trkpt>
      <trkpt lat="45.21289" lon="5.60736">
        <ele>1564</ele>
        <time>2018-07-04T22:11:10+02:00</time>
      </trkpt>
      <trkpt lat="45.21339" lon="5.60712">
        <ele>1565</ele>
        <time>2018-07-04T22:11:15+02:00</time>
      </trkpt>
      <trkpt lat="45.21296" lon="5.6074">
        <ele>1565</ele>
        <time>2018-07-04T22:11:20+02:00</time>
      </trkpt>
      <trkpt lat="45.21286" lon="5.60739">
        <ele>1564</ele>
        <time>2018-07-04T22:11:25+02:00</time>
      </trkpt>
      <trkpt lat="45.21282" lon="5.60711">
        <ele>1561</ele>
        <time>2018-07-04T22:11:30+02:00</time>
      </trkpt>
      <trkpt lat="45.21318" lon="5.60667">
        <ele>1559</ele>
        <time>2018-07-04T22:11:35+02:00</time>
      </trkpt>
      <trkpt lat="45.21327" lon="5.60601">
        <ele>1554</ele>
        <time>2018-07-04T22:11:40+02:00</time>
      </trkpt>
      <trkpt lat="45.2133" lon="5.60632">
        <ele>1557</ele>
        <time>2018-07-04T22:11:45+02:00</time>
      </trkpt>
      <trkpt lat="45.21302" lon="5.60564">
        <ele>1551</ele>
        <time>2018-07-04T22:11:50+02:00</time>
      </trkpt>
      <trkpt lat="45.21319" lon="5.6058">
        <ele>1552</ele>
        <time>2018-07-04T22:11:55+02:00</time>
      </trkpt>
      <trkpt lat="45.21317" lon="5.60485">
        <ele>1542</ele>
        <time>2018-07-04T22:12:00+02:00</time>
      </trkpt>
      <trkpt lat="45.21313" lon="5.60517">
        <ele>1545</ele>
        <time>2018-07-04T22:12:05+02:00</time>
      </trkpt>
      <trkpt lat="45.21313" lon="5.60497">
        <ele>1543</ele>
        <time>2018-07-04T22:12:10+02:00</time>
      </trkpt>
      <trkpt lat="45.21286" lon="5.60458">
        <ele>1543</ele>
        <time>2018-07-04T22:12:15+02:00</time>
      </trkpt>
      <trkpt lat="45.21256" lon="5.6042">
        <ele>1544</ele>
        <time>2018-07-04T22:12:20+02:00</time>
      </trkpt>
      <trkpt lat="45.21176" lon="5.60375">
        <ele>1549</ele>
        <time>2018-07-04T22:12:25+02:00</time>
      </trkpt>
      <trkpt lat="45.21125" lon="5.60317">
        <ele>1554</ele>
        <time>2018-07-04T22:12:30+02:00</time>
      </trkpt>
      <trkpt lat="45.21151" lon="5.60354">
        <ele>1551</ele>
        <time>2018-07-04T22:12:35+02:00</time>
      </trkpt>
      <trkpt lat="45.21097" lon="5.60298">
        <ele>1556</ele>
        <time>2018-07-04T22:12:40+02:00</time>
      </trkpt>
      <trkpt lat="45.211" lon="5.60262">
        <ele>1556</ele>
        <time>2018-07-04T22:12:45+02:00</time>
      </trkpt>
      <trkpt lat="45.21088" lon="5.60285">
        <ele>1556</ele>
        <time>2018-07-04T22:12:50+02:00</time>
      </trkpt>
      <trkpt lat="45.21088" lon="5.60262">
        <ele>1557</ele>
        <time>2018-07-04T22:12:55+02:00</time>
      </trkpt>
      <trkpt lat="45.21076" lon="5.60249">
        <ele>1557</ele>
        <time>2018-07-04T22:13:00+02:00</time>
      </trkpt>
      <trkpt lat="45.21029" lon="5.60182">
        <ele>1561</ele>
        <time>2018-07-04T22:13:05+02:00</time>
      </trkpt>
      <trkpt lat="45.21044" lon="5.60198">
        <ele>1560</ele>
        <time>2018-07-04T22:13:10+02:00</time>
      </trkpt>
      <trkpt lat="45.21033" lon="5.60178">
        <ele>1561</ele>
        <time>2018-07-04T22:13:15+02:00</time>
      </trkpt>
      <trkpt lat="45.21025" lon="5.60162">
        <ele>1562</ele>
        <time>2018-07-04T22:13:20+02:00</time>
      </trkpt>
      <trkpt lat="45.20966" lon="5.60058">
        <ele>1567</ele>
        <time>2018-07-04T22:13:25+02:00</time>
      </trkpt>
      <trkpt lat="45.20987" lon="5.60104">
        <ele>1564</ele>
        <time>2018-07-04T22:13:30+02:00</time>
      </trkpt>
      <trkpt lat="45.20955" lon="5.60021">
        <ele>1568</ele>
        <time>2018-07-04T22:13:35+02:00</time>
      </trkpt>
      <trkpt lat="45.2096" lon="5.60035">
        <ele>1568</ele>
        <time>2018-07-04T22:13:40+02:00</time>
      </trkpt>
      <trkpt lat="45.20951" lon="5.60027">
        <ele>1568</ele>
        <time>2018-07-04T22:13:45+02:00</time>
      </trkpt>
      <trkpt lat="45.20939" lon="5.60009">
        <ele>1568</ele>
        <time>2018-07-04T22:13:50+02:00</time>
      </trkpt>
      <trkpt lat="45.20915" lon="5.59988">
        <ele>1568</ele>
        <time>2018-07-04T22:13:55+02:00</time>
      </trkpt>
      <trkpt lat="45.20893" lon="5.59989">
        <ele>1569</ele>
        <time>2018-07-04T22:14:00+02:00</time>
      </trkpt>
      <trkpt lat="45.20859" lon="5.59996">
        <ele>1569</ele>
        <time>2018-07-04T22:14:05+02:00</time>
      </trkpt>
      <trkpt lat="45.20861" lon="5.59967">
        <ele>1570</ele>
        <time>2018-07-04T22:14:10+02:00</time>
      </trkpt>
      <trkpt lat="45.20886" lon="5.59949">
        <ele>1570</ele>
        <time>2018-07-04T22:14:15+02:00</time>
      </trkpt>
      <trkpt lat="45.20939" lon="5.59903">
        <ele>1571</ele>
        <time>2018-07-04T22:14:20+02:00</time>
      </trkpt>
      <trkpt lat="45.20934" lon="5.59897">
        <ele>1571</ele>
        <time>2018-07-04T22:14:25+02:00</time>
      </trkpt>
      <trkpt lat="45.20934" lon="5.59829">
        <ele>1575</ele>
        <time>2018-07-04T22:14:30+02:00</time>
      </trkpt>
      <trkpt lat="45.20893" lon="5.59768">
        <ele>1579</ele>
        <time>2018-07-04T22:14:35+02:00</time>
      </trkpt>
      <trkpt lat="45.20868" lon="5.59751">
        <ele>1581</ele>
        <time>2018-07-04T22:14:40+02:00</time>
      </trkpt>
      <trkpt lat="45.20834" lon="5.59719">
        <ele>1584</ele>
        <time>2018-07-04T22:14:45+02:00</time>
      </trkpt>
      <trkpt lat="45.20844" lon="5.59738">
        <ele>1583</ele>
        <time>2018-07-04T22:14:50+02:00</time>
      </trkpt>
      <trkpt lat="45.20825" lon="5.59713">
        <ele>1585</ele>
        <time>2018-07-04T22:14:55+02:00</time>
      </trkpt>
      <trkpt lat="45.20831" lon="5.59696">
        <ele>1584</ele>
        <time>2018-07-04T22:15:00+02:00</time>
      </trkpt>
      <trkpt lat="45.20822" lon="5.59626">
        <ele>1588</ele>
        <time>2018-07-04T22:15:05+02:00</time>
      </trkpt>
      <trkpt lat="45.20823" lon="5.59633">
        <ele>1587</ele>
        <time>2018-07-04T22:15:10+02:00</time>
      </trkpt>
      <trkpt lat="45.20791" lon="5.59621">
        <ele>1592</ele>
        <time>2018-07-04T22:15:15+02:00</time>
      </trkpt>
      <trkpt lat="45.20745" lon="5.59604">
        <ele>1597</ele>
        <time>2018-07-04T22:15:20+02:00</time>
      </trkpt>
      <trkpt lat="45.20673" lon="5.59551">
        <ele>1603</ele>
        <time>2018-07-04T22:15:25+02:00</time>
      </trkpt>
      <trkpt lat="45.20671" lon="5.59558">
        <ele>1602</ele>
        <time>2018-07-04T22:15:30+02:00</time>
      </trkpt>
      <trkpt lat="45.20603" lon="5.59547">
        <ele>1604</ele>
        <time>2018-07-04T22:15:35+02:00</time>
      </trkpt>
      <trkpt lat="45.20604" lon="5.59556">
        <ele>1604</ele>
        <time>2018-07-04T22:15:40+02:00</time>
      </trkpt>
      <trkpt lat="45.20579" lon="5.59533">
        <ele>1606</ele>
        <time>2018-07-04T22:15:45+02:00</time>
      </trkpt>
      <trkpt lat="45.20565" lon="5.59464">
        <ele>1611</ele>
        <time>2018-07-04T22:15:50+02:00</time>
      </trkpt>
      <trkpt lat="45.20569" lon="5.59424">
        <ele>1614</ele>
        <time>2018-07-04T22:15:55+02:00</time>
      </trkpt>
      <trkpt lat="45.20547" lon="5.59311">
        <ele>1623</ele>
        <time>2018-07-04T22:16:00+02:00</time>
      </trkpt>
      <trkpt lat="45.20542" lon="5.59313">
        <ele>1623</ele>
        <time>2018-07-04T22:16:05+02:00</time>
      </trkpt>
      <trkpt lat="45.20475" lon="5.59313">
        <ele>1625</ele>
        <time>2018-07-04T22:16:10+02:00</time>
      </trkpt>
      <trkpt lat="45.20381" lon="5.59309">
        <ele>1626</ele>
        <time>2018-07-04T22:16:15+02:00</time>
      </trkpt>
      <trkpt lat="45.20319" lon="5.59283">
        <ele>1628</ele>
        <time>2018-07-04T22:16:20+02:00</time>
      </trkpt>
      <trkpt lat="45.20207" lon="5.59244">
        <ele>1633</ele>
        <time>2018-07-04T22:16:25+02:00</time>
      </trkpt>
      <trkpt lat="45.20253" lon="5.59265">
        <ele>1632</ele>
        <time>2018-07-04T22:16:30+02:00</time>
      </trkpt>
      <trkpt lat="45.20074" lon="5.59217">
        <ele>1631</ele>
        <time>2018-07-04T22:16:35+02:00</time>
      </trkpt>
      <trkpt lat="45.2011" lon="5.59224">
        <ele>1632</ele>
        <time>2018-07-04T22:16:40+02:00</time>
      </trkpt>
      <trkpt lat="45.20074" lon="5.59223">
        <ele>1630</ele>
        <time>2018-07-04T22:16:45+02:00</time>
      </trkpt>
      <trkpt lat="45.19828" lon="5.59191">
        <ele>1631</ele>
        <time>2018-07-04T22:16:50+02:00</time>
      </trkpt>
      <trkpt lat="45.19936" lon="5.59195">
        <ele>1630</ele>
        <time>2018-07-04T22:16:55+02:00</time>
      </trkpt>
      <trkpt lat="45.1987" lon="5.59183">
        <ele>1631</ele>
        <time>2018-07-04T22:17:00+02:00</time>
      </trkpt>
      <trkpt lat="45.19838" lon="5.59197">
        <ele>1630</ele>
        <time>2018-07-04T22:17:05+02:00</time>
      </trkpt>
      <trkpt lat="45.19731" lon="5.59234">
        <ele>1634</ele>
        <time>2018-07-04T22:17:10+02:00</time>
      </trkpt>
      <trkpt lat="45.19794" lon="5.59185">
        <ele>1633</ele>
        <time>2018-07-04T22:17:15+02:00</time>
      </trkpt>
      <trkpt lat="45.19775" lon="5.59203">
        <ele>1633</ele>
        <time>2018-07-04T22:17:20+02:00</time>
      </trkpt>
      <trkpt lat="45.19651" lon="5.59214">
        <ele>1641</ele>
        <time>2018-07-04T22:17:25+02:00</time>
      </trkpt>
      <trkpt lat="45.19692" lon="5.59231">
        <ele>1636</ele>
        <time>2018-07-04T22:17:30+02:00</time>
      </trkpt>
      <trkpt lat="45.19567" lon="5.59262">
        <ele>1639</ele>
        <time>2018-07-04T22:17:35+02:00</time>
      </trkpt>
      <trkpt lat="45.1948" lon="5.59347">
        <ele>1627</ele>
        <time>2018-07-04T22:17:40+02:00</time>
      </trkpt>
      <trkpt lat="45.19431" lon="5.59386">
        <ele>1622</ele>
        <time>2018-07-04T22:17:45+02:00</time>
      </trkpt>
      <trkpt lat="45.19434" lon="5.59382">
        <ele>1622</ele>
        <time>2018-07-04T22:17:50+02:00</time>
      </trkpt>
      <trkpt lat="45.19422" lon="5.59381">
        <ele>1623</ele>
        <time>2018-07-04T22:17:55+02:00</time>
      </trkpt>
      <trkpt lat="45.19357" lon="5.59382">
        <ele>1620</ele>
        <time>2018-07-04T22:18:00+02:00</time>
      </trkpt>
      <trkpt lat="45.19263" lon="5.5937">
        <ele>1616</ele>
        <time>2018-07-04T22:18:05+02:00</time>
      </trkpt>
      <trkpt lat="45.19233" lon="5.59363">
        <ele>1615</ele>
        <time>2018-07-04T22:18:10+02:00</time>
      </trkpt>
      <trkpt lat="45.1918" lon="5.59366">
        <ele>1610</ele>
        <time>2018-07-04T22:18:15+02:00</time>
      </trkpt>
      <trkpt lat="45.19096" lon="5.59388">
        <ele>1600</ele>
        <time>2018-07-04T22:18:20+02:00</time>
      </trkpt>
      <trkpt lat="45.1909" lon="5.59393">
        <ele>1599</ele>
        <time>2018-07-04T22:18:25+02:00</time>
      </trkpt>
      <trkpt lat="45.18931" lon="5.5945">
        <ele>1593</ele>
        <time>2018-07-04T22:18:30+02:00</time>
      </trkpt>
      <trkpt lat="45.18997" lon="5.59396">
        <ele>1599</ele>
        <time>2018-07-04T22:18:35+02:00</time>
      </trkpt>
      <trkpt lat="45.18944" lon="5.5944">
        <ele>1594</ele>
        <time>2018-07-04T22:18:40+02:00</time>
      </trkpt>
      <trkpt lat="45.1891" lon="5.59454">
        <ele>1592</ele>
        <time>2018-07-04T22:18:45+02:00</time>
      </trkpt>
      <trkpt lat="45.18845" lon="5.59485">
        <ele>1586</ele>
        <time>2018-07-04T22:18:50+02:00</time>
      </trkpt>
      <trkpt lat="45.18851" lon="5.59471">
        <ele>1588</ele>
        <time>2018-07-04T22:18:55+02:00</time>
      </trkpt>
      <trkpt lat="45.18843" lon="5.59484">
        <ele>1586</ele>
        <time>2018-07-04T22:19:00+02:00</time>
      </trkpt>
      <trkpt lat="45.18736" lon="5.59545">
        <ele>1575</ele>
        <time>2018-07-04T22:19:05+02:00</time>
      </trkpt>
      <trkpt lat="45.18805" lon="5.59537">
        <ele>1579</ele>
        <time>2018-07-04T22:19:10+02:00</time>
      </trkpt>
      <trkpt lat="45.18637" lon="5.5953">
        <ele>1571</ele>
        <time>2018-07-04T22:19:15+02:00</time>
      </trkpt>
      <trkpt lat="45.18544" lon="5.59515">
        <ele>1564</ele>
        <time>2018-07-04T22:19:20+02:00</time>
      </trkpt>
      <trkpt lat="45.1847" lon="5.5944">
        <ele>1563</ele>
        <time>2018-07-04T22:19:25+02:00</time>
      </trkpt>
      <trkpt lat="45.18506" lon="5.59484">
        <ele>1566</ele>
        <time>2018-07-04T22:19:30+02:00</time>
      </trkpt>
      <trkpt lat="45.18469" lon="5.59444">
        <ele>1562</ele>
        <time>2018-07-04T22:19:35+02:00</time>
      </trkpt>
      <trkpt lat="45.18311" lon="5.59283">
        <ele>1565</ele>
        <time>2018-07-04T22:19:40+02:00</time>
      </trkpt>
      <trkpt lat="45.18294" lon="5.59266">
        <ele>1564</ele>
        <time>2018-07-04T22:19:45+02:00</time>
      </trkpt>
      <trkpt lat="45.18299" lon="5.59271">
        <ele>1564</ele>
        <time>2018-07-04T22:19:50+02:00</time>
      </trkpt>
      <trkpt lat="45.1829" lon="5.59251">
        <ele>1564</ele>
        <time>2018-07-04T22:19:55+02:00</time>
      </trkpt>
      <trkpt lat="45.18275" lon="5.59237">
        <ele>1564</ele>
        <time>2018-07-04T22:20:00+02:00</time>
      </trkpt>
      <trkpt lat="45.18261" lon="5.59218">
        <ele>1566</ele>
        <time>2018-07-04T22:20:05+02:00</time>
      </trkpt>
      <trkpt lat="45.18227" lon="5.59187">
        <ele>1568</ele>
        <time>2018-07-04T22:20:10+02:00</time>
      </trkpt>
      <trkpt lat="45.18185" lon="5.59168">
        <ele>1565</ele>
        <time>2018-07-04T22:20:15+02:00</time>
      </trkpt>
      <trkpt lat="45.18138" lon="5.59139">
        <ele>1563</ele>
        <time>2018-07-04T22:20:20+02:00</time>
      </trkpt>
      <trkpt lat="45.18113" lon="5.59134">
        <ele>1560</ele>
        <time>2018-07-04T22:20:25+02:00</time>
      </trkpt>
      <trkpt lat="45.17957" lon="5.59015">
        <ele>1566</ele>
        <time>2018-07-04T22:20:30+02:00</time>
      </trkpt>
      <trkpt lat="45.17881" lon="5.58985">
        <ele>1574</ele>
        <time>2018-07-04T22:20:35+02:00</time>
      </trkpt>
      <trkpt lat="45.17918" lon="5.59005">
        <ele>1570</ele>
        <time>2018-07-04T22:20:40+02:00</time>
      </trkpt>
      <trkpt lat="45.17744" lon="5.58996">
        <ele>1581</ele>
        <time>2018-07-04T22:20:45+02:00</time>
      </trkpt>
      <trkpt lat="45.17642" lon="5.58944">
        <ele>1589</ele>
        <time>2018-07-04T22:20:50+02:00</time>
      </trkpt>
      <trkpt lat="45.1764" lon="5.58936">
        <ele>1590</ele>
        <time>2018-07-04T22:20:55+02:00</time>
      </trkpt>
      <trkpt lat="45.17594" lon="5.58923">
        <ele>1589</ele>
        <time>2018-07-04T22:21:00+02:00</time>
      </trkpt>
      <trkpt lat="45.17537" lon="5.58879">
        <ele>1591</ele>
        <time>2018-07-04T22:21:05+02:00</time>
      </trkpt>
      <trkpt lat="45.17502" lon="5.58863">
        <ele>1591</ele>
        <time>2018-07-04T22:21:10+02:00</time>
      </trkpt>
      <trkpt lat="45.17445" lon="5.58827">
        <ele>1594</ele>
        <time>2018-07-04T22:21:15+02:00</time>
      </trkpt>
      <trkpt lat="45.1725" lon="5.58732">
        <ele>1591</ele>
        <time>2018-07-04T22:21:20+02:00</time>
      </trkpt>
      <trkpt lat="45.17194" lon="5.58654">
        <ele>1589</ele>
        <time>2018-07-04T22:21:25+02:00</time>
      </trkpt>
      <trkpt lat="45.17185" lon="5.58664">
        <ele>1588</ele>
        <time>2018-07-04T22:21:30+02:00</time>
      </trkpt>
      <trkpt lat="45.17057" lon="5.58704">
        <ele>1574</ele>
        <time>2018-07-04T22:21:35+02:00</time>
      </trkpt>
      <trkpt lat="45.1706" lon="5.5871">
        <ele>1574</ele>
        <time>2018-07-04T22:21:40+02:00</time>
      </trkpt>
      <trkpt lat="45.17018" lon="5.58706">
        <ele>1571</ele>
        <time>2018-07-04T22:21:45+02:00</time>
      </trkpt>
      <trkpt lat="45.16974" lon="5.58674">
        <ele>1568</ele>
        <time>2018-07-04T22:21:50+02:00</time>
      </trkpt>
      <trkpt lat="45.16784" lon="5.58648">
        <ele>1550</ele>
        <time>2018-07-04T22:21:55+02:00</time>
      </trkpt>
      <trkpt lat="45.16786" lon="5.58655">
        <ele>1549</ele>
        <time>2018-07-04T22:22:00+02:00</time>
      </trkpt>
      <trkpt lat="45.16706" lon="5.58649">
        <ele>1539</ele>
        <time>2018-07-04T22:22:05+02:00</time>
      </trkpt>
      <trkpt lat="45.16493" lon="5.58678">
        <ele>1502</ele>
        <time>2018-07-04T22:22:10+02:00</time>
      </trkpt>
      <trkpt lat="45.16427" lon="5.58699">
        <ele>1485</ele>
        <time>2018-07-04T22:22:15+02:00</time>
      </trkpt>
      <trkpt lat="45.16297" lon="5.58732">
        <ele>1453</ele>
        <time>2018-07-04T22:22:20+02:00</time>
      </trkpt>
      <trkpt lat="45.16344" lon="5.58811">
        <ele>1450</ele>
        <time>2018-07-04T22:22:25+02:00</time>
      </trkpt>
      <trkpt lat="45.16291" lon="5.58748">
        <ele>1448</ele>
        <time>2018-07-04T22:22:30+02:00</time>
      </trkpt>
      <trkpt lat="45.16324" lon="5.58787">
        <ele>1451</ele>
        <time>2018-07-04T22:22:35+02:00</time>
      </trkpt>
      <trkpt lat="45.1634" lon="5.58816">
        <ele>1450</ele>
        <time>2018-07-04T22:22:40+02:00</time>
      </trkpt>
      <trkpt lat="45.16499" lon="5.5909">
        <ele>1412</ele>
        <time>2018-07-04T22:22:45+02:00</time>
      </trkpt>
      <trkpt lat="45.16426" lon="5.58979">
        <ele>1433</ele>
        <time>2018-07-04T22:22:50+02:00</time>
      </trkpt>
      <trkpt lat="45.16477" lon="5.59048">
        <ele>1419</ele>
        <time>2018-07-04T22:22:55+02:00</time>
      </trkpt>
      <trkpt lat="45.16493" lon="5.59086">
        <ele>1414</ele>
        <time>2018-07-04T22:23:00+02:00</time>
      </trkpt>
      <trkpt lat="45.16496" lon="5.59116">
        <ele>1410</ele>
        <time>2018-07-04T22:23:05+02:00</time>
      </trkpt>
      <trkpt lat="45.1648" lon="5.59144">
        <ele>1412</ele>
        <time>2018-07-04T22:23:10+02:00</time>
      </trkpt>
      <trkpt lat="45.16464" lon="5.59247">
        <ele>1397</ele>
        <time>2018-07-04T22:23:15+02:00</time>
      </trkpt>
      <trkpt lat="45.1647" lon="5.59217">
        <ele>1402</ele>
        <time>2018-07-04T22:23:20+02:00</time>
      </trkpt>
      <trkpt lat="45.16396" lon="5.59326">
        <ele>1379</ele>
        <time>2018-07-04T22:23:25+02:00</time>
      </trkpt>
      <trkpt lat="45.16449" lon="5.59258">
        <ele>1397</ele>
        <time>2018-07-04T22:23:30+02:00</time>
      </trkpt>
      <trkpt lat="45.16428" lon="5.59283">
        <ele>1393</ele>
        <time>2018-07-04T22:23:35+02:00</time>
      </trkpt>
      <trkpt lat="45.16296" lon="5.59311">
        <ele>1370</ele>
        <time>2018-07-04T22:23:40+02:00</time>
      </trkpt>
      <trkpt lat="45.16365" lon="5.59327">
        <ele>1376</ele>
        <time>2018-07-04T22:23:45+02:00</time>
      </trkpt>
      <trkpt lat="45.16329" lon="5.5932">
        <ele>1375</ele>
        <time>2018-07-04T22:23:50+02:00</time>
      </trkpt>
      <trkpt lat="45.16299" lon="5.59306">
        <ele>1373</ele>
        <time>2018-07-04T22:23:55+02:00</time>
      </trkpt>
      <trkpt lat="45.16247" lon="5.59285">
        <ele>1368</ele>
        <time>2018-07-04T22:24:00+02:00</time>
      </trkpt>
      <trkpt lat="45.16161" lon="5.59236">
        <ele>1360</ele>
        <time>2018-07-04T22:24:05+02:00</time>
      </trkpt>
      <trkpt lat="45.16176" lon="5.59244">
        <ele>1361</ele>
        <time>2018-07-04T22:24:10+02:00</time>
      </trkpt>
      <trkpt lat="45.16054" lon="5.59236">
        <ele>1329</ele>
        <time>2018-07-04T22:24:15+02:00</time>
      </trkpt>
      <trkpt lat="45.16145" lon="5.59233">
        <ele>1357</ele>
        <time>2018-07-04T22:24:20+02:00</time>
      </trkpt>
      <trkpt lat="45.1611" lon="5.59234">
        <ele>1347</ele>
        <time>2018-07-04T22:24:25+02:00</time>
      </trkpt>
      <trkpt lat="45.16014" lon="5.59204">
        <ele>1328</ele>
        <time>2018-07-04T22:24:30+02:00</time>
      </trkpt>
      <trkpt lat="45.16029" lon="5.59228">
        <ele>1324</ele>
        <time>2018-07-04T22:24:35+02:00</time>
      </trkpt>
      <trkpt lat="45.16011" lon="5.59227">
        <ele>1319</ele>
        <time>2018-07-04T22:24:40+02:00</time>
      </trkpt>
      <trkpt lat="45.16007" lon="5.59212">
        <ele>1322</ele>
        <time>2018-07-04T22:24:45+02:00</time>
      </trkpt>
      <trkpt lat="45.16011" lon="5.59225">
        <ele>1319</ele>
        <time>2018-07-04T22:24:50+02:00</time>
      </trkpt>
      <trkpt lat="45.16043" lon="5.59269">
        <ele>1316</ele>
        <time>2018-07-04T22:24:55+02:00</time>
      </trkpt>
      <trkpt lat="45.16085" lon="5.59299">
        <ele>1317</ele>
        <time>2018-07-04T22:25:00+02:00</time>
      </trkpt>
      <trkpt lat="45.16106" lon="5.59308">
        <ele>1320</ele>
        <time>2018-07-04T22:25:05+02:00</time>
      </trkpt>
      <trkpt lat="45.16126" lon="5.59322">
        <ele>1321</ele>
        <time>2018-07-04T22:25:10+02:00</time>
      </trkpt>
      <trkpt lat="45.16158" lon="5.594">
        <ele>1304</ele>
        <time>2018-07-04T22:25:15+02:00</time>
      </trkpt>
      <trkpt lat="45.16179" lon="5.59428">
        <ele>1301</ele>
        <time>2018-07-04T22:25:20+02:00</time>
      </trkpt>
      <trkpt lat="45.16202" lon="5.59483">
        <ele>1290</ele>
        <time>2018-07-04T22:25:25+02:00</time>
      </trkpt>
      <trkpt lat="45.16299" lon="5.59584">
        <ele>1275</ele>
        <time>2018-07-04T22:25:30+02:00</time>
      </trkpt>
      <trkpt lat="45.16245" lon="5.5954">
        <ele>1282</ele>
        <time>2018-07-04T22:25:35+02:00</time>
      </trkpt>
      <trkpt lat="45.16279" lon="5.59562">
        <ele>1280</ele>
        <time>2018-07-04T22:25:40+02:00</time>
      </trkpt>
      <trkpt lat="45.16385" lon="5.59734">
        <ele>1253</ele>
        <time>2018-07-04T22:25:45+02:00</time>
      </trkpt>
      <trkpt lat="45.1635" lon="5.59656">
        <ele>1263</ele>
        <time>2018-07-04T22:25:50+02:00</time>
      </trkpt>
      <trkpt lat="45.16405" lon="5.59652">
        <ele>1272</ele>
        <time>2018-07-04T22:25:55+02:00</time>
      </trkpt>
      <trkpt lat="45.1639" lon="5.59699">
        <ele>1260</ele>
        <time>2018-07-04T22:26:00+02:00</time>
      </trkpt>
      <trkpt lat="45.16395" lon="5.59669">
        <ele>1267</ele>
        <time>2018-07-04T22:26:05+02:00</time>
      </trkpt>
      <trkpt lat="45.16407" lon="5.59651">
        <ele>1272</ele>
        <time>2018-07-04T22:26:10+02:00</time>
      </trkpt>
      <trkpt lat="45.16423" lon="5.59712">
        <ele>1262</ele>
        <time>2018-07-04T22:26:15+02:00</time>
      </trkpt>
      <trkpt lat="45.16418" lon="5.59684">
        <ele>1268</ele>
        <time>2018-07-04T22:26:20+02:00</time>
      </trkpt>
      <trkpt lat="45.16458" lon="5.59783">
        <ele>1253</ele>
        <time>2018-07-04T22:26:25+02:00</time>
      </trkpt>
      <trkpt lat="45.1644" lon="5.59756">
        <ele>1256</ele>
        <time>2018-07-04T22:26:30+02:00</time>
      </trkpt>
      <trkpt lat="45.16521" lon="5.59826">
        <ele>1255</ele>
        <time>2018-07-04T22:26:35+02:00</time>
      </trkpt>
      <trkpt lat="45.16484" lon="5.59813">
        <ele>1252</ele>
        <time>2018-07-04T22:26:40+02:00</time>
      </trkpt>
      <trkpt lat="45.16521" lon="5.59828">
        <ele>1255</ele>
        <time>2018-07-04T22:26:45+02:00</time>
      </trkpt>
      <trkpt lat="45.16556" lon="5.59843">
        <ele>1257</ele>
        <time>2018-07-04T22:26:50+02:00</time>
      </trkpt>
      <trkpt lat="45.16629" lon="5.59845">
        <ele>1263</ele>
        <time>2018-07-04T22:26:55+02:00</time>
      </trkpt>
      <trkpt lat="45.16631" lon="5.5985">
        <ele>1262</ele>
        <time>2018-07-04T22:27:00+02:00</time>
      </trkpt>
      <trkpt lat="45.1666" lon="5.59831">
        <ele>1269</ele>
        <time>2018-07-04T22:27:05+02:00</time>
      </trkpt>
      <trkpt lat="45.16686" lon="5.59827">
        <ele>1273</ele>
        <time>2018-07-04T22:27:10+02:00</time>
      </trkpt>
      <trkpt lat="45.16698" lon="5.59858">
        <ele>1264</ele>
        <time>2018-07-04T22:27:15+02:00</time>
      </trkpt>
      <trkpt lat="45.16735" lon="5.59908">
        <ele>1249</ele>
        <time>2018-07-04T22:27:20+02:00</time>
      </trkpt>
      <trkpt lat="45.16819" lon="5.59942">
        <ele>1243</ele>
        <time>2018-07-04T22:27:25+02:00</time>
      </trkpt>
      <trkpt lat="45.16889" lon="5.59914">
        <ele>1259</ele>
        <time>2018-07-04T22:27:30+02:00</time>
      </trkpt>
      <trkpt lat="45.16866" lon="5.59916">
        <ele>1255</ele>
        <time>2018-07-04T22:27:35+02:00</time>
      </trkpt>
      <trkpt lat="45.16887" lon="5.59909">
        <ele>1260</ele>
        <time>2018-07-04T22:27:40+02:00</time>
      </trkpt>
      <trkpt lat="45.16888" lon="5.59929">
        <ele>1257</ele>
        <time>2018-07-04T22:27:45+02:00</time>
      </trkpt>
      <trkpt lat="45.16866" lon="5.59974">
        <ele>1247</ele>
        <time>2018-07-04T22:27:50+02:00</time>
      </trkpt>
      <trkpt lat="45.16854" lon="5.60015">
        <ele>1240</ele>
        <time>2018-07-04T22:27:55+02:00</time>
      </trkpt>
      <trkpt lat="45.16845" lon="5.60055">
        <ele>1238</ele>
        <time>2018-07-04T22:28:00+02:00</time>
      </trkpt>
      <trkpt lat="45.16825" lon="5.60078">
        <ele>1233</ele>
        <time>2018-07-04T22:28:05+02:00</time>
      </trkpt>
      <trkpt lat="45.16815" lon="5.60103">
        <ele>1229</ele>
        <time>2018-07-04T22:28:10+02:00</time>
      </trkpt>
      <trkpt lat="45.16836" lon="5.60133">
        <ele>1234</ele>
        <time>2018-07-04T22:28:15+02:00</time>
      </trkpt>
      <trkpt lat="45.1685" lon="5.60141">
        <ele>1237</ele>
        <time>2018-07-04T22:28:20+02:00</time>
      </trkpt>
      <trkpt lat="45.16954" lon="5.60163">
        <ele>1253</ele>
        <time>2018-07-04T22:28:25+02:00</time>
      </trkpt>
      <trkpt lat="45.16912" lon="5.60149">
        <ele>1247</ele>
        <time>2018-07-04T22:28:30+02:00</time>
      </trkpt>
      <trkpt lat="45.16984" lon="5.60212">
        <ele>1248</ele>
        <time>2018-07-04T22:28:35+02:00</time>
      </trkpt>
      <trkpt lat="45.16971" lon="5.60183">
        <ele>1252</ele>
        <time>2018-07-04T22:28:40+02:00</time>
      </trkpt>
      <trkpt lat="45.17019" lon="5.60287">
        <ele>1236</ele>
        <time>2018-07-04T22:28:45+02:00</time>
      </trkpt>
      <trkpt lat="45.17025" lon="5.60356">
        <ele>1225</ele>
        <time>2018-07-04T22:28:50+02:00</time>
      </trkpt>
      <trkpt lat="45.17016" lon="5.60335">
        <ele>1227</ele>
        <time>2018-07-04T22:28:55+02:00</time>
      </trkpt>
      <trkpt lat="45.17046" lon="5.60403">
        <ele>1221</ele>
        <time>2018-07-04T22:29:00+02:00</time>
      </trkpt>
      <trkpt lat="45.17045" lon="5.6041">
        <ele>1220</ele>
        <time>2018-07-04T22:29:05+02:00</time>
      </trkpt>
      <trkpt lat="45.17101" lon="5.60463">
        <ele>1209</ele>
        <time>2018-07-04T22:29:10+02:00</time>
      </trkpt>
      <trkpt lat="45.17092" lon="5.60467">
        <ele>1209</ele>
        <time>2018-07-04T22:29:15+02:00</time>
      </trkpt>
      <trkpt lat="45.17146" lon="5.60495">
        <ele>1198</ele>
        <time>2018-07-04T22:29:20+02:00</time>
      </trkpt>
      <trkpt lat="45.17308" lon="5.60459">
        <ele>1187</ele>
        <time>2018-07-04T22:29:25+02:00</time>
      </trkpt>
      <trkpt lat="45.17252" lon="5.6045">
        <ele>1198</ele>
        <time>2018-07-04T22:29:30+02:00</time>
      </trkpt>
      <trkpt lat="45.17368" lon="5.60472">
        <ele>1181</ele>
        <time>2018-07-04T22:29:35+02:00</time>
      </trkpt>
      <trkpt lat="45.17333" lon="5.60456">
        <ele>1185</ele>
        <time>2018-07-04T22:29:40+02:00</time>
      </trkpt>
      <trkpt lat="45.17396" lon="5.60637">
        <ele>1130</ele>
        <time>2018-07-04T22:29:45+02:00</time>
      </trkpt>
      <trkpt lat="45.17381" lon="5.60534">
        <ele>1160</ele>
        <time>2018-07-04T22:29:50+02:00</time>
      </trkpt>
      <trkpt lat="45.17391" lon="5.6063">
        <ele>1132</ele>
        <time>2018-07-04T22:29:55+02:00</time>
      </trkpt>
      <trkpt lat="45.17389" lon="5.60656">
        <ele>1123</ele>
        <time>2018-07-04T22:30:00+02:00</time>
      </trkpt>
      <trkpt lat="45.17441" lon="5.60778">
        <ele>1094</ele>
        <time>2018-07-04T22:30:05+02:00</time>
      </trkpt>
      <trkpt lat="45.17503" lon="5.60985">
        <ele>1042</ele>
        <time>2018-07-04T22:30:10+02:00</time>
      </trkpt>
      <trkpt lat="45.17492" lon="5.60959">
        <ele>1049</ele>
        <time>2018-07-04T22:30:15+02:00</time>
      </trkpt>
      <trkpt lat="45.17529" lon="5.61043">
        <ele>1018</ele>
        <time>2018-07-04T22:30:20+02:00</time>
      </trkpt>
      <trkpt lat="45.17512" lon="5.61016">
        <ele>1031</ele>
        <time>2018-07-04T22:30:25+02:00</time>
      </trkpt>
      <trkpt lat="45.17526" lon="5.61195">
        <ele>993</ele>
        <time>2018-07-04T22:30:30+02:00</time>
      </trkpt>
      <trkpt lat="45.17512" lon="5.61285">
        <ele>979</ele>
        <time>2018-07-04T22:30:35+02:00</time>
      </trkpt>
      <trkpt lat="45.17499" lon="5.61332">
        <ele>972</ele>
        <time>2018-07-04T22:30:40+02:00</time>
      </trkpt>
      <trkpt lat="45.175" lon="5.61311">
        <ele>978</ele>
        <time>2018-07-04T22:30:45+02:00</time>
      </trkpt>
      <trkpt lat="45.17499" lon="5.61343">
        <ele>969</ele>
        <time>2018-07-04T22:30:50+02:00</time>
      </trkpt>
      <trkpt lat="45.17539" lon="5.61307">
        <ele>963</ele>
        <time>2018-07-04T22:30:55+02:00</time>
      </trkpt>
      <trkpt lat="45.17536" lon="5.61306">
        <ele>965</ele>
        <time>2018-07-04T22:31:00+02:00</time>
      </trkpt>
      <trkpt lat="45.17571" lon="5.6125">
        <ele>963</ele>
        <time>2018-07-04T22:31:05+02:00</time>
      </trkpt>
      <trkpt lat="45.17579" lon="5.61184">
        <ele>970</ele>
        <time>2018-07-04T22:31:10+02:00</time>
      </trkpt>
      <trkpt lat="45.17588" lon="5.61112">
        <ele>977</ele>
        <time>2018-07-04T22:31:15+02:00</time>
      </trkpt>
      <trkpt lat="45.17615" lon="5.61052">
        <ele>979</ele>
        <time>2018-07-04T22:31:20+02:00</time>
      </trkpt>
      <trkpt lat="45.17691" lon="5.61268">
        <ele>947</ele>
        <time>2018-07-04T22:31:25+02:00</time>
      </trkpt>
      <trkpt lat="45.17716" lon="5.61388">
        <ele>938</ele>
        <time>2018-07-04T22:31:30+02:00</time>
      </trkpt>
      <trkpt lat="45.1773" lon="5.61468">
        <ele>933</ele>
        <time>2018-07-04T22:31:35+02:00</time>
      </trkpt>
      <trkpt lat="45.1781" lon="5.61564">
        <ele>934</ele>
        <time>2018-07-04T22:31:40+02:00</time>
      </trkpt>
      <trkpt lat="45.17872" lon="5.61579">
        <ele>941</ele>
        <time>2018-07-04T22:31:45+02:00</time>
      </trkpt>
      <trkpt lat="45.17998" lon="5.6165">
        <ele>935</ele>
        <time>2018-07-04T22:31:50+02:00</time>
      </trkpt>
      <trkpt lat="45.18037" lon="5.61676">
        <ele>928</ele>
        <time>2018-07-04T22:31:55+02:00</time>
      </trkpt>
    </trkseg>
  </trk>
</gpx>